Time;durP1;ratioP1;P1;durP2;ratioP2;P2;SDS_P1;SDS_P2;PMS_P1;PMS_P2;Temp;Humidity;BMP_temperature;BMP_pressure;BME280_temperature;BME280_humidity;BME280_pressure;Samples;Min_cycle;Max_cycle;Signal;HPM_P1;HPM_P2
2021/01/14 00:01:08;;;;;;;3.25;2.95;;;;;;;-5.32;80.18;96984.30;1727173;82;21160;-70
2021/01/14 00:03:36;;;;;;;7.67;2.37;;;;;;;-5.32;80.20;96985.56;1692420;84;21185;-69
2021/01/14 00:06:07;;;;;;;4.75;3.55;;;;;;;-5.29;80.25;96982.89;1706182;83;21151;-69
2021/01/14 00:08:35;;;;;;;4.33;2.98;;;;;;;-5.31;80.00;96985.95;1727567;82;21199;-70
2021/01/14 00:11:03;;;;;;;4.15;3.08;;;;;;;-5.33;80.00;96988.98;1692262;84;21184;-70
2021/01/14 00:13:32;;;;;;;3.55;3.25;;;;;;;-5.33;80.09;96986.45;1706854;84;21141;-68
2021/01/14 00:16:00;;;;;;;3.17;2.17;;;;;;;-5.42;79.80;96991.95;1727440;82;21234;-69
2021/01/14 00:18:28;;;;;;;2.15;2.02;;;;;;;-5.49;79.81;96993.55;1727474;82;21155;-69
2021/01/14 00:20:58;;;;;;;4.35;2.98;;;;;;;-5.49;80.09;96986.79;1727720;83;21611;-69
2021/01/14 00:23:26;;;;;;;3.17;2.83;;;;;;;-5.58;80.16;96988.89;1727536;82;21564;-67
2021/01/14 00:25:55;;;;;;;5.37;3.17;;;;;;;-5.61;80.31;96991.13;1727346;83;21167;-69
2021/01/14 00:28:23;;;;;;;3.67;3.35;;;;;;;-5.62;80.36;96992.45;1727516;83;21284;-69
2021/01/14 00:30:52;;;;;;;1.17;1.17;;;;;;;-5.61;80.25;96989.86;1727431;82;21247;-69
2021/01/14 00:33:20;;;;;;;5.90;3.37;;;;;;;-5.56;80.12;96991.72;1727369;82;21171;-67
2021/01/14 00:35:48;;;;;;;2.05;1.52;;;;;;;-5.52;79.60;96986.91;1727309;83;21132;-67
2021/01/14 00:38:16;;;;;;;4.70;3.40;;;;;;;-5.53;79.29;96987.81;1727383;82;21163;-66
2021/01/14 00:40:45;;;;;;;3.30;2.90;;;;;;;-5.53;79.12;96984.46;1692193;84;21615;-66
2021/01/14 00:43:13;;;;;;;1.87;1.77;;;;;;;-5.46;79.52;96990.87;1727231;83;21223;-66
2021/01/14 00:45:41;;;;;;;5.10;2.52;;;;;;;-5.34;79.68;96992.42;1727394;83;21628;-69
2021/01/14 00:48:10;;;;;;;6.12;3.37;;;;;;;-5.23;79.66;96978.00;1727566;82;21305;-68
2021/01/14 00:50:38;;;;;;;2.60;2.40;;;;;;;-5.11;79.52;96983.77;1727682;82;21321;-67
2021/01/14 00:53:06;;;;;;;4.83;2.52;;;;;;;-5.00;79.30;96985.79;1723946;82;21264;-68
2021/01/14 00:55:55;;;;;;;7.42;3.92;;;;;;;-4.89;79.12;96983.56;1722222;82;21138;-68
2021/01/14 00:58:24;;;;;;;4.58;3.42;;;;;;;-4.79;78.77;96979.73;1702005;83;21357;-67
2021/01/14 01:00:52;;;;;;;4.12;3.45;;;;;;;-4.67;78.49;96981.67;1701512;83;21159;-67
2021/01/14 01:03:20;;;;;;;8.33;3.12;;;;;;;-4.60;78.02;96980.48;1701496;84;21589;-66
2021/01/14 01:05:48;;;;;;;4.47;4.08;;;;;;;-4.52;77.69;96972.50;1701455;84;21175;-66
2021/01/14 01:08:16;;;;;;;5.50;3.47;;;;;;;-4.48;77.38;96975.27;1701401;84;21589;-66
2021/01/14 01:10:45;;;;;;;2.98;2.77;;;;;;;-4.51;76.54;96972.41;1701613;84;21223;-66
2021/01/14 01:13:13;;;;;;;3.20;2.90;;;;;;;-4.60;75.61;96972.88;1701772;84;21337;-66
2021/01/14 01:15:41;;;;;;;2.22;2.08;;;;;;;-4.68;76.20;96974.96;1701375;84;21148;-66
2021/01/14 01:18:09;;;;;;;3.67;2.30;;;;;;;-4.61;76.51;96969.97;1701599;83;21297;-66
2021/01/14 01:20:37;;;;;;;8.80;3.40;;;;;;;-4.65;76.34;96964.67;1701251;83;21143;-66
2021/01/14 01:23:06;;;;;;;5.00;3.42;;;;;;;-4.68;76.83;96961.47;1701612;84;21637;-66
2021/01/14 01:25:36;;;;;;;3.92;2.62;;;;;;;-4.59;77.29;96955.50;1701618;84;21761;-66
2021/01/14 01:28:05;;;;;;;2.75;2.50;;;;;;;-4.49;77.35;96954.17;1701353;84;21172;-67
2021/01/14 01:30:34;;;;;;;3.30;2.70;;;;;;;-4.43;76.79;96953.03;1701465;83;21163;-64
2021/01/14 01:33:07;;;;;;;3.37;2.58;;;;;;;-4.37;76.86;96960.34;1701461;84;21710;-64
2021/01/14 01:35:35;;;;;;;6.70;3.55;;;;;;;-4.42;75.19;96950.88;1701430;84;21583;-65
2021/01/14 01:38:04;;;;;;;3.27;2.33;;;;;;;-4.42;75.52;96945.36;1701791;84;21253;-64
2021/01/14 01:40:32;;;;;;;2.60;1.90;;;;;;;-4.41;75.92;96943.65;1701595;84;21223;-67
2021/01/14 01:43:00;;;;;;;3.12;2.87;;;;;;;-4.36;75.93;96945.52;1701716;84;21354;-66
2021/01/14 01:45:28;;;;;;;2.37;2.17;;;;;;;-4.34;74.99;96940.73;1701751;84;21674;-65
2021/01/14 01:47:56;;;;;;;3.77;2.12;;;;;;;-4.47;74.97;96940.96;1701750;84;21343;-67
2021/01/14 01:50:25;;;;;;;4.47;2.65;;;;;;;-4.46;75.58;96939.25;1701631;84;21148;-68
2021/01/14 01:52:55;;;;;;;4.90;2.35;;;;;;;-4.41;75.78;96934.34;1701710;83;21610;-67
2021/01/14 01:55:24;;;;;;;2.67;1.40;;;;;;;-4.43;75.83;96925.98;1701298;84;21601;-68
2021/01/14 01:57:53;;;;;;;6.62;3.65;;;;;;;-4.40;76.09;96932.16;1701315;84;21605;-70
2021/01/14 02:00:22;;;;;;;16.07;3.22;;;;;;;-4.38;76.04;96926.58;1701299;84;21593;-66
2021/01/14 02:02:52;;;;;;;7.62;4.05;;;;;;;-4.39;75.82;96926.64;1701561;84;21247;-67
2021/01/14 02:05:21;;;;;;;3.22;3.02;;;;;;;-4.41;76.08;96928.00;1701386;84;21549;-66
2021/01/14 02:08:19;;;;;;;3.33;2.50;;;;;;;-4.52;75.78;96918.86;1701299;83;21165;-66
2021/01/14 02:10:57;;;;;;;3.67;2.40;;;;;;;-4.62;76.01;96915.56;1701224;84;21584;-65
2021/01/14 02:13:49;;;;;;;3.52;3.08;;;;;;;-4.65;76.27;96905.14;1701328;84;21167;-63
2021/01/14 02:16:17;;;;;;;2.75;2.47;;;;;;;-4.70;76.20;96902.02;1701509;84;21192;-64
2021/01/14 02:18:47;;;;;;;7.25;2.87;;;;;;;-4.70;76.29;96898.66;1701361;84;21537;-65
2021/01/14 02:21:17;;;;;;;3.15;2.52;;;;;;;-4.77;76.03;96901.95;1701482;83;21203;-64
2021/01/14 02:24:11;;;;;;;5.92;3.60;;;;;;;-4.86;76.32;96904.92;1701584;84;21215;-67
2021/01/14 02:26:41;;;;;;;2.90;2.58;;;;;;;-4.88;76.54;96898.68;1701429;84;21588;-64
2021/01/14 02:29:09;;;;;;;3.47;2.70;;;;;;;-4.90;76.71;96890.77;1701443;84;21648;-64
2021/01/14 02:31:37;;;;;;;11.12;3.30;;;;;;;-4.87;76.92;96892.73;1701615;83;21191;-64
2021/01/14 02:34:05;;;;;;;3.67;2.35;;;;;;;-4.87;76.90;96883.05;1701494;83;21148;-64
2021/01/14 02:36:33;;;;;;;3.27;2.80;;;;;;;-4.80;76.90;96880.14;1701716;84;21175;-64
2021/01/14 02:39:01;;;;;;;6.12;3.52;;;;;;;-4.77;76.82;96877.89;1701251;84;21189;-64
2021/01/14 02:41:29;;;;;;;4.72;3.80;;;;;;;-4.76;76.58;96877.00;1701562;83;21171;-64
2021/01/14 02:43:59;;;;;;;2.98;2.72;;;;;;;-4.73;76.33;96878.55;1701498;83;21196;-64
2021/01/14 02:46:27;;;;;;;3.80;3.20;;;;;;;-4.74;76.20;96870.13;1701441;83;21184;-64
2021/01/14 02:49:10;;;;;;;4.62;3.05;;;;;;;-4.73;76.09;96871.78;1701198;84;21140;-65
2021/01/14 02:51:57;;;;;;;7.53;2.60;;;;;;;-4.70;75.98;96861.93;1701484;83;21207;-67
2021/01/14 02:54:25;;;;;;;;;;;;;;;-4.84;75.15;96861.36;1703770;84;21213;-68
2021/01/14 02:56:54;;;;;;;2.90;2.65;;;;;;;-4.93;75.44;96859.27;1694389;84;20126;-64
2021/01/14 02:59:22;;;;;;;1.98;1.87;;;;;;;-4.95;75.96;96853.48;1701258;84;21574;-67
2021/01/14 03:01:51;;;;;;;2.20;2.10;;;;;;;-4.92;76.30;96851.62;1701122;84;21149;-67
2021/01/14 03:04:19;;;;;;;1.90;1.70;;;;;;;-4.87;76.33;96846.33;1704023;83;21181;-68
2021/01/14 03:06:47;;;;;;;2.05;1.95;;;;;;;-4.81;76.30;96841.77;1704269;83;21184;-67
2021/01/14 03:09:17;;;;;;;1.75;1.65;;;;;;;-4.76;76.17;96839.02;1711547;84;21153;-69
2021/01/14 03:11:45;;;;;;;4.35;3.15;;;;;;;-4.73;75.84;96835.05;1711807;84;21145;-69
2021/01/14 03:14:14;;;;;;;3.17;2.52;;;;;;;-4.71;75.44;96837.52;1711797;83;21136;-70
2021/01/14 03:16:43;;;;;;;11.65;2.75;;;;;;;-4.71;75.05;96838.78;1711615;84;21144;-69
2021/01/14 03:19:11;;;;;;;1.98;1.52;;;;;;;-4.72;74.75;96833.34;1711355;84;21153;-69
2021/01/14 03:21:39;;;;;;;3.52;2.85;;;;;;;-4.76;74.49;96836.92;1711588;83;21160;-66
2021/01/14 03:24:30;;;;;;;4.45;4.00;;;;;;;-4.73;74.68;96827.90;1711337;83;21152;-66
2021/01/14 03:26:59;;;;;;;4.58;3.45;;;;;;;-4.68;74.64;96822.16;1677197;85;21806;-65
2021/01/14 03:29:27;;;;;;;4.40;2.83;;;;;;;-4.63;74.74;96827.82;1677336;85;21325;-66
2021/01/14 03:34:43;;;;;;;4.70;3.47;;;;;;;-4.56;74.35;96823.63;1719940;82;21144;-66
2021/01/14 03:37:24;;;;;;;2.00;1.90;;;;;;;-4.62;73.97;96818.86;1653362;86;21595;-65
2021/01/14 03:39:53;;;;;;;2.50;1.75;;;;;;;-4.68;74.28;96825.96;1653450;87;21185;-68
2021/01/14 03:42:22;;;;;;;3.62;2.47;;;;;;;-4.73;74.70;96820.30;1653473;87;21197;-69
2021/01/14 03:44:50;;;;;;;3.90;2.17;;;;;;;-4.69;75.02;96820.07;1653286;87;21134;-67
2021/01/14 03:47:20;;;;;;;3.27;2.65;;;;;;;-4.64;75.08;96813.07;1653209;87;21162;-66
2021/01/14 03:49:48;;;;;;;1.60;1.45;;;;;;;-4.58;74.91;96811.92;1634517;87;21177;-67
2021/01/14 03:52:16;;;;;;;2.15;2.05;;;;;;;-4.55;74.83;96813.05;1653557;87;21225;-68
2021/01/14 03:54:46;;;;;;;4.10;2.30;;;;;;;-4.51;74.66;96806.90;1653650;87;21154;-67
2021/01/14 03:57:14;;;;;;;8.43;3.15;;;;;;;-4.47;74.77;96803.31;1653358;87;21187;-67
2021/01/14 03:59:44;;;;;;;6.53;1.95;;;;;;;-4.44;74.73;96797.66;1653547;87;22329;-67
2021/01/14 04:02:13;;;;;;;4.08;3.00;;;;;;;-4.39;74.76;96790.63;1653836;87;21191;-67
2021/01/14 04:04:43;;;;;;;7.75;4.72;;;;;;;-4.35;74.66;96791.27;1653489;87;21170;-64
2021/01/14 04:07:15;;;;;;;1.50;1.32;;;;;;;-4.34;74.46;96789.94;1653370;87;21169;-67
2021/01/14 04:09:43;;;;;;;1.42;0.90;;;;;;;-4.39;74.30;96780.48;1653564;87;21617;-67
2021/01/14 04:12:11;;;;;;;2.35;1.77;;;;;;;-4.45;74.54;96772.39;1653645;87;21153;-64
2021/01/14 04:14:50;;;;;;;3.08;2.00;;;;;;;-4.40;74.81;96780.58;1653391;86;21149;-68
2021/01/14 04:17:17;;;;;;;1.00;0.90;;;;;;;-4.43;74.23;96777.73;1653983;87;21522;-69
2021/01/14 04:19:46;;;;;;;1.65;1.55;;;;;;;-4.54;74.21;96777.93;1653447;87;21249;-69
2021/01/14 04:22:14;;;;;;;1.47;1.20;;;;;;;-4.56;74.60;96770.88;1653641;87;21173;-69
2021/01/14 04:24:42;;;;;;;3.35;1.92;;;;;;;-4.56;74.97;96770.43;1653554;86;21557;-67
2021/01/14 04:27:11;;;;;;;2.87;1.62;;;;;;;-4.45;75.26;96768.59;1653707;87;21178;-67
2021/01/14 04:29:40;;;;;;;3.40;2.22;;;;;;;-4.37;75.26;96769.83;1653442;87;21586;-66
2021/01/14 04:32:08;;;;;;;1.80;1.70;;;;;;;-4.31;74.91;96765.69;1653658;87;21237;-66
2021/01/14 04:34:36;;;;;;;2.30;2.17;;;;;;;-4.23;74.90;96764.02;1653563;87;21197;-69
2021/01/14 04:37:05;;;;;;;1.60;1.50;;;;;;;-4.19;74.91;96761.69;1653606;87;21149;-69
2021/01/14 04:39:33;;;;;;;3.62;2.62;;;;;;;-4.12;75.01;96765.97;1653810;87;21161;-70
2021/01/14 04:42:06;;;;;;;4.55;2.45;;;;;;;-4.08;74.84;96770.80;1653696;87;21196;-69
2021/01/14 04:44:34;;;;;;;4.10;3.00;;;;;;;-4.06;74.41;96765.66;1653358;87;21185;-69
2021/01/14 04:47:15;;;;;;;6.75;5.08;;;;;;;-4.05;74.30;96761.78;1653421;87;21238;-69
2021/01/14 04:49:43;;;;;;;4.35;2.52;;;;;;;-4.02;74.39;96764.14;1653414;87;21162;-68
2021/01/14 04:52:33;;;;;;;4.95;2.17;;;;;;;-4.00;74.20;96754.72;1653444;87;21220;-66
2021/01/14 04:55:03;;;;;;;3.65;1.55;;;;;;;-3.96;74.40;96751.56;1652856;87;21189;-66
2021/01/14 04:57:37;;;;;;;1.70;1.57;;;;;;;-3.99;74.14;96753.01;1652910;86;21590;-66
2021/01/14 05:00:28;;;;;;;2.50;2.30;;;;;;;-4.03;73.46;96751.09;1652995;87;21150;-68
2021/01/14 05:03:02;;;;;;;2.45;2.25;;;;;;;-4.06;72.91;96754.25;1665210;85;21570;-65
2021/01/14 05:05:33;;;;;;;2.25;2.12;;;;;;;-4.13;73.12;96756.75;1698982;84;21651;-65
2021/01/14 05:08:14;;;;;;;3.30;2.65;;;;;;;-4.16;73.53;96752.64;1698806;84;21151;-66
2021/01/14 05:10:44;;;;;;;5.92;2.22;;;;;;;-4.16;73.87;96753.91;1698918;83;21296;-66
2021/01/14 05:13:14;;;;;;;3.52;1.75;;;;;;;-4.08;74.27;96756.86;1698807;84;21575;-66
2021/01/14 05:15:42;;;;;;;2.22;1.85;;;;;;;-4.10;74.30;96748.53;1698929;84;21390;-67
2021/01/14 05:18:10;;;;;;;3.42;2.30;;;;;;;-4.13;74.23;96762.64;1699021;84;21199;-64
2021/01/14 05:20:38;;;;;;;1.77;1.05;;;;;;;-4.24;74.02;96763.64;1698931;84;21736;-65
2021/01/14 05:23:08;;;;;;;1.20;1.10;;;;;;;-4.24;74.53;96760.31;1698900;84;21317;-66
2021/01/14 05:25:40;;;;;;;2.15;1.75;;;;;;;-4.28;75.26;96759.66;1698904;84;21313;-66
2021/01/14 05:28:14;;;;;;;1.55;0.90;;;;;;;-4.31;75.23;96760.63;1698559;84;21567;-66
2021/01/14 05:30:43;;;;;;;1.12;0.75;;;;;;;-4.32;75.52;96753.13;1696587;84;21236;-66
2021/01/14 05:33:15;;;;;;;0.72;0.72;;;;;;;-4.25;75.69;96759.50;1691229;84;21170;-66
2021/01/14 05:35:49;;;;;;;2.37;1.70;;;;;;;-4.25;75.55;96754.42;1691509;84;21183;-66
2021/01/14 05:38:24;;;;;;;3.67;1.42;;;;;;;-4.22;75.87;96750.90;1691156;84;21152;-66
2021/01/14 05:41:11;;;;;;;1.22;1.00;;;;;;;-4.23;76.36;96748.81;1691805;84;21149;-66
2021/01/14 05:43:58;;;;;;;0.98;0.90;;;;;;;-4.24;76.83;96741.30;1693386;85;21149;-66
2021/01/14 05:46:32;;;;;;;1.22;1.05;;;;;;;-4.19;77.11;96736.34;1693327;84;21626;-66
2021/01/14 05:49:27;;;;;;;2.52;1.40;;;;;;;-4.10;77.47;96731.23;1693558;84;21185;-68
2021/01/14 05:51:56;;;;;;;2.15;1.32;;;;;;;-4.03;77.57;96735.06;1692898;85;21235;-67
2021/01/14 05:54:30;;;;;;;2.35;2.20;;;;;;;-3.97;77.40;96729.67;1692880;85;21207;-67
2021/01/14 05:57:02;;;;;;;1.05;0.95;;;;;;;-4.23;78.22;96725.17;1692982;85;21239;-71
2021/01/14 05:59:34;;;;;;;1.37;1.00;;;;;;;-4.12;77.84;96720.34;1692944;85;21167;-70
2021/01/14 06:02:02;;;;;;;6.65;1.35;;;;;;;-4.01;77.97;96720.59;1693991;85;21222;-71
2021/01/14 06:04:31;;;;;;;2.27;2.08;;;;;;;-3.99;78.11;96714.53;1685935;84;21309;-70
2021/01/14 06:07:06;;;;;;;2.30;1.32;;;;;;;-3.93;78.19;96715.44;1694301;84;21148;-70
2021/01/14 06:09:44;;;;;;;0.82;0.82;;;;;;;-3.86;78.07;96714.67;1702218;84;21624;-71
2021/01/14 06:12:14;;;;;;;2.33;2.08;;;;;;;-3.88;77.98;96708.85;1692629;85;21137;-69
2021/01/14 06:14:43;;;;;;;2.75;2.55;;;;;;;-3.77;77.90;96720.96;1692324;85;21624;-70
2021/01/14 06:17:13;;;;;;;3.50;3.20;;;;;;;-3.74;77.70;96713.17;1684831;83;21644;-70
2021/01/14 06:19:42;;;;;;;2.33;1.90;;;;;;;-3.75;77.64;96712.80;1685168;85;21195;-68
2021/01/14 06:22:16;;;;;;;3.27;2.90;;;;;;;-3.71;77.78;96707.47;1695045;84;21153;-69
2021/01/14 06:24:47;;;;;;;5.47;3.62;;;;;;;-3.71;77.59;96704.94;1694873;85;21172;-68
2021/01/14 06:27:15;;;;;;;3.50;3.08;;;;;;;-3.67;77.66;96711.47;1663728;85;21596;-69
2021/01/14 06:29:44;;;;;;;3.40;2.40;;;;;;;-3.65;77.59;96721.52;1695024;84;21157;-69
2021/01/14 06:32:19;;;;;;;3.35;2.20;;;;;;;-3.64;77.42;96717.64;1692499;84;21652;-69
2021/01/14 06:34:52;;;;;;;5.60;2.60;;;;;;;-3.61;77.34;96717.45;1699282;84;21641;-68
2021/01/14 06:37:24;;;;;;;4.45;2.80;;;;;;;-3.63;77.00;96711.66;1704516;84;21299;-69
2021/01/14 06:39:58;;;;;;;4.42;2.87;;;;;;;-3.60;77.07;96717.01;1698306;84;21251;-69
2021/01/14 06:42:32;;;;;;;1.90;1.80;;;;;;;-3.66;76.69;96721.99;1692902;84;21171;-69
2021/01/14 06:45:26;;;;;;;4.30;3.87;;;;;;;-3.69;76.95;96721.32;1692971;84;21183;-70
2021/01/14 06:48:00;;;;;;;3.80;2.80;;;;;;;-3.64;77.09;96721.89;1692375;84;21234;-70
2021/01/14 06:50:31;;;;;;;6.62;3.05;;;;;;;-3.65;76.92;96720.24;1691852;83;21164;-69
2021/01/14 06:53:37;;;;;;;3.60;3.30;;;;;;;-3.59;77.03;96720.73;1692035;84;21560;-66
2021/01/14 06:56:08;;;;;;;2.42;1.98;;;;;;;-3.53;76.99;96724.19;1760553;81;21155;-67
2021/01/14 06:58:38;;;;;;;3.42;3.12;;;;;;;-3.47;76.83;96721.31;1760865;81;21211;-66
2021/01/14 07:01:06;;;;;;;7.45;5.15;;;;;;;-3.41;76.68;96725.20;1750782;81;21198;-69
2021/01/14 07:04:13;;;;;;;3.45;3.17;;;;;;;-3.42;76.84;96724.38;1727119;83;21168;-69
2021/01/14 07:06:45;;;;;;;3.50;2.52;;;;;;;-3.40;76.81;96725.58;1723299;83;21603;-69
2021/01/14 07:09:17;;;;;;;8.85;3.62;;;;;;;-3.39;76.94;96728.48;1689674;83;21150;-68
2021/01/14 07:11:49;;;;;;;9.28;3.72;;;;;;;-3.33;76.85;96728.58;1672521;86;21192;-68
2021/01/14 07:14:23;;;;;;;5.12;3.77;;;;;;;-3.26;76.95;96731.12;1726829;83;21178;-69
2021/01/14 07:17:14;;;;;;;6.42;4.03;;;;;;;-3.24;76.42;96733.13;1734832;82;21158;-69
2021/01/14 07:19:43;;;;;;;7.45;4.72;;;;;;;-3.19;76.48;96729.41;1630216;87;21264;-70
2021/01/14 07:22:15;;;;;;;10.13;5.97;;;;;;;-3.03;76.83;96730.60;1661061;85;21208;-69
2021/01/14 07:24:44;;;;;;;7.12;4.85;;;;;;;-2.89;76.61;96731.89;1661048;86;21166;-70
2021/01/14 07:27:13;;;;;;;9.13;4.45;;;;;;;-2.88;75.80;96731.00;1660729;86;21210;-70
2021/01/14 07:29:44;;;;;;;7.70;5.17;;;;;;;-2.75;76.28;96734.88;1672571;81;21171;-67
2021/01/14 07:32:13;;;;;;;17.37;6.65;;;;;;;-2.62;76.20;96731.97;1722889;83;21646;-66
2021/01/14 07:34:46;;;;;;;9.35;6.05;;;;;;;-2.64;74.90;96725.70;1745987;80;21111;-70
2021/01/14 07:37:20;;;;;;;17.77;10.18;;;;;;;-2.70;76.19;96726.08;1759804;81;21183;-70
2021/01/14 07:39:57;;;;;;;16.23;9.70;;;;;;;-2.64;75.95;96723.16;1759604;81;21705;-64
2021/01/14 07:42:31;;;;;;;3.35;2.92;;;;;;;-2.50;76.21;96725.70;1759996;81;21162;-65
2021/01/14 07:45:27;;;;;;;6.75;3.87;;;;;;;-2.55;75.56;96723.06;1759656;81;21163;-64
2021/01/14 07:47:58;;;;;;;5.67;4.60;;;;;;;-2.37;76.23;96730.84;1718179;83;21547;-64
2021/01/14 07:50:29;;;;;;;6.40;4.45;;;;;;;-2.42;74.05;96719.70;1700697;83;21107;-66
2021/01/14 07:52:58;;;;;;;5.37;3.77;;;;;;;-2.59;75.22;96709.73;1715428;82;21224;-68
2021/01/14 07:55:31;;;;;;;6.50;5.75;;;;;;;-2.59;75.22;96709.73;1741636;81;21376;-67
2021/01/14 07:58:21;;;;;;;12.98;4.22;;;;;;;-2.41;75.64;96716.22;1750954;82;21183;-67
2021/01/14 08:01:03;;;;;;;9.33;5.80;;;;;;;-2.26;75.70;96713.67;1750439;81;21751;-67
2021/01/14 08:03:40;;;;;;;7.47;4.75;;;;;;;-2.06;76.03;96714.05;1750782;82;21338;-66
2021/01/14 08:06:34;;;;;;;8.95;6.40;;;;;;;-1.91;75.28;96713.56;1751180;81;21322;-66
2021/01/14 08:11:58;;;;;;;11.70;7.97;;;;;;;-1.65;75.00;96704.25;1780134;79;22759;-66
2021/01/14 08:14:41;;;;;;;7.87;5.28;;;;;;;-1.66;73.74;96713.62;1742616;81;21663;-67
2021/01/14 08:17:26;;;;;;;4.97;3.33;;;;;;;-1.63;73.44;96710.87;1738920;81;21133;-66
2021/01/14 08:19:58;;;;;;;8.03;6.17;;;;;;;-1.59;73.80;96709.76;1737822;82;21247;-71
2021/01/14 08:22:27;;;;;;;11.03;6.30;;;;;;;-1.48;73.81;96707.81;1736266;82;21207;-68
2021/01/14 08:24:59;;;;;;;6.70;6.03;;;;;;;-1.48;73.81;96707.81;1737889;82;21297;-72
2021/01/14 08:27:33;;;;;;;15.18;8.00;;;;;;;-1.41;74.03;96709.49;1739994;82;21164;-71
2021/01/14 08:30:15;;;;;;;10.00;6.37;;;;;;;-1.40;73.50;96697.12;1736672;82;21680;-70
2021/01/14 08:32:59;;;;;;;12.88;7.55;;;;;;;-1.30;73.81;96695.59;1736376;82;21199;-69
2021/01/14 08:35:33;;;;;;;16.82;10.63;;;;;;;-1.30;73.13;96698.14;1734282;82;21145;-70
2021/01/14 08:38:15;;;;;;;15.85;8.48;;;;;;;-1.26;73.89;96688.11;1739984;82;21204;-70
2021/01/14 08:40:46;;;;;;;13.00;7.15;;;;;;;-1.26;73.89;96688.11;1743745;82;21871;-70
2021/01/14 08:43:21;;;;;;;10.10;6.53;;;;;;;-1.07;73.55;96699.53;1711518;82;21279;-69
2021/01/14 08:45:55;;;;;;;11.20;6.77;;;;;;;-1.05;73.09;96697.68;1732072;82;21176;-69
2021/01/14 08:48:51;;;;;;;13.38;9.60;;;;;;;-0.95;72.94;96696.62;1735942;82;21191;-69
2021/01/14 08:51:42;;;;;;;9.13;7.42;;;;;;;-1.02;73.07;96683.94;1669563;86;21242;-67
2021/01/14 08:54:14;;;;;;;11.48;7.92;;;;;;;-1.02;73.07;96683.94;1678140;85;21190;-67
2021/01/14 08:56:44;;;;;;;10.00;7.08;;;;;;;-0.83;72.90;96659.30;1679962;85;21189;-66
2021/01/14 08:59:18;;;;;;;8.03;5.87;;;;;;;-0.71;72.97;96678.86;1673056;84;21158;-67
2021/01/14 09:01:48;;;;;;;18.15;9.35;;;;;;;-0.61;72.84;96676.02;1678537;84;21123;-66
2021/01/14 09:04:41;;;;;;;10.58;7.10;;;;;;;-0.67;72.13;96650.50;1678292;85;21173;-66
2021/01/14 09:07:10;;;;;;;9.80;6.03;;;;;;;-0.56;71.82;96667.59;1686267;84;22153;-68
2021/01/14 09:09:39;;;;;;;20.02;8.18;;;;;;;-0.30;72.54;96680.63;1683678;85;21651;-69
2021/01/14 09:12:09;;;;;;;12.13;8.20;;;;;;;-0.18;71.41;96681.04;1650406;86;21227;-69
2021/01/14 09:14:42;;;;;;;11.33;8.05;;;;;;;-0.02;72.56;96678.22;1681940;85;21154;-68
2021/01/14 09:17:16;;;;;;;16.67;7.08;;;;;;;0.04;70.58;96673.16;1679324;85;21181;-70
2021/01/14 09:20:16;;;;;;;9.90;6.20;;;;;;;0.14;70.09;96672.84;1676825;85;21178;-70
2021/01/14 09:22:46;;;;;;;14.78;7.85;;;;;;;0.25;70.98;96666.48;1656996;85;21203;-72
2021/01/14 09:25:15;;;;;;;14.35;8.13;;;;;;;0.21;68.65;96665.08;1659534;85;21191;-70
2021/01/14 09:27:44;;;;;;;12.35;7.42;;;;;;;0.26;69.29;96665.11;1659550;85;21195;-70
2021/01/14 09:30:34;;;;;;;13.78;8.63;;;;;;;0.37;69.21;96661.77;1631769;87;21211;-69
2021/01/14 09:33:03;;;;;;;9.40;6.15;;;;;;;0.46;69.34;96661.11;1592070;90;21222;-69
2021/01/14 09:35:32;;;;;;;14.80;6.95;;;;;;;0.50;68.56;96654.03;1651225;86;21178;-68
2021/01/14 09:38:00;;;;;;;14.15;8.08;;;;;;;0.57;69.02;96652.20;1651538;86;21178;-70
2021/01/14 09:40:29;;;;;;;11.15;6.67;;;;;;;0.58;68.33;96646.63;1651490;87;21603;-69
2021/01/14 09:42:59;;;;;;;10.68;6.70;;;;;;;0.67;68.94;96645.47;1651214;87;21199;-68
2021/01/14 09:45:29;;;;;;;15.15;7.72;;;;;;;0.70;68.76;96645.23;1651691;86;21195;-69
2021/01/14 09:47:58;;;;;;;15.03;7.10;;;;;;;0.66;67.97;96646.38;1651620;87;21254;-69
2021/01/14 09:50:27;;;;;;;7.35;5.65;;;;;;;0.68;68.23;96640.71;1651407;86;21254;-69
2021/01/14 09:52:55;;;;;;;12.13;7.28;;;;;;;0.68;68.44;96636.06;1651502;87;21170;-69
2021/01/14 09:55:24;;;;;;;15.03;8.68;;;;;;;0.62;69.36;96633.52;1651407;87;21615;-70
2021/01/14 09:57:56;;;;;;;14.93;7.28;;;;;;;0.63;69.34;96638.14;1651262;87;21135;-70
2021/01/14 10:00:28;;;;;;;16.52;6.87;;;;;;;0.70;69.46;96638.05;1651406;87;21716;-68
2021/01/14 10:05:55;;;;;;;23.05;6.87;;;;;;;0.39;69.53;96627.53;1668107;85;21201;-66
2021/01/14 10:08:48;;;;;;;10.80;7.37;;;;;;;0.27;70.57;96623.31;1668169;86;21252;-67
2021/01/14 10:11:17;;;;;;;10.75;7.40;;;;;;;0.15;71.00;96624.23;1667941;86;21185;-66
2021/01/14 10:13:51;;;;;;;10.15;7.55;;;;;;;0.00;70.70;96621.52;1665477;86;21155;-67
2021/01/14 10:16:21;;;;;;;14.95;7.28;;;;;;;0.18;71.61;96613.80;1667815;85;21689;-66
2021/01/14 10:18:50;;;;;;;12.80;7.35;;;;;;;0.22;71.49;96618.21;1667771;85;21199;-66
2021/01/14 10:21:24;;;;;;;13.75;8.98;;;;;;;-0.17;72.72;96618.89;1667873;86;21597;-69
2021/01/14 10:26:46;;;;;;;8.78;5.95;;;;;;;-0.18;73.27;96608.33;1654028;86;21159;-67
2021/01/14 10:29:38;;;;;;;15.18;8.35;;;;;;;-0.12;73.54;96601.50;1626149;88;21213;-68
2021/01/14 10:32:27;;;;;;;11.83;8.65;;;;;;;0.00;72.81;96606.20;1601937;88;21208;-65
2021/01/14 10:34:55;;;;;;;6.67;5.97;;;;;;;0.02;73.04;96597.14;1729638;83;21284;-66
2021/01/14 10:37:27;;;;;;;11.65;7.65;;;;;;;0.13;72.66;96593.34;1699402;84;21587;-66
2021/01/14 10:40:26;;;;;;;10.30;6.60;;;;;;;0.12;72.88;96596.84;1705360;84;21255;-66
2021/01/14 10:42:53;;;;;;;9.55;6.42;;;;;;;0.21;73.05;96587.22;1695887;84;21179;-66
2021/01/14 10:45:26;;;;;;;12.68;6.85;;;;;;;-0.06;74.15;96580.66;1720998;82;21136;-66
2021/01/14 10:48:17;;;;;;;9.13;5.80;;;;;;;0.03;73.78;96579.18;1673967;86;21209;-64
2021/01/14 10:50:54;;;;;;;10.20;5.53;;;;;;;-0.09;74.06;96585.17;1754016;82;21127;-65
2021/01/14 10:53:30;;;;;;;8.28;4.40;;;;;;;-0.13;74.95;96580.75;1754251;82;21225;-65
2021/01/14 10:56:11;;;;;;;6.40;4.97;;;;;;;0.15;74.09;96577.02;1754480;81;21099;-65
2021/01/14 10:58:42;;;;;;;9.45;6.03;;;;;;;0.33;73.54;96579.48;1754175;81;21146;-65
2021/01/14 11:01:20;;;;;;;10.32;5.45;;;;;;;0.19;73.92;96579.69;1754179;81;21135;-68
2021/01/14 11:03:51;;;;;;;11.43;6.83;;;;;;;0.33;73.46;96575.64;1754177;82;21740;-68
2021/01/14 11:06:37;;;;;;;8.15;5.20;;;;;;;0.22;73.45;96574.36;1754236;81;21201;-66
2021/01/14 11:09:11;;;;;;;11.10;5.42;;;;;;;0.44;73.87;96569.27;1754165;82;21532;-68
2021/01/14 11:11:39;;;;;;;8.15;5.90;;;;;;;0.55;73.87;96565.91;1737742;81;21159;-68
2021/01/14 11:14:08;;;;;;;9.00;4.97;;;;;;;0.51;73.47;96561.95;1713939;82;22702;-68
2021/01/14 11:16:36;;;;;;;7.90;5.35;;;;;;;0.70;72.76;96561.41;1734487;82;21340;-71
2021/01/14 11:19:06;;;;;;;10.50;6.37;;;;;;;0.59;73.11;96539.20;1713883;83;21202;-70
2021/01/14 11:21:37;;;;;;;40.98;21.57;;;;;;;0.71;72.67;96553.61;1713515;82;21197;-69
2021/01/14 11:27:05;;;;;;;6.78;5.20;;;;;;;0.92;72.14;96555.00;1717682;83;21159;-69
2021/01/14 11:29:33;;;;;;;6.20;4.00;;;;;;;0.73;73.55;96555.59;1717911;83;21730;-70
2021/01/14 11:32:02;;;;;;;8.45;5.65;;;;;;;0.80;72.62;96553.38;1718068;83;21163;-69
2021/01/14 11:34:30;;;;;;;4.80;3.40;;;;;;;0.79;72.34;96556.40;1717893;83;21294;-70
2021/01/14 11:36:59;;;;;;;8.03;4.87;;;;;;;0.97;72.24;96550.81;1717236;82;21303;-68
2021/01/14 11:39:28;;;;;;;12.85;8.30;;;;;;;0.82;72.57;96554.88;1717647;82;21680;-68
2021/01/14 11:41:57;;;;;;;8.03;4.87;;;;;;;0.91;72.02;96555.92;1717812;82;21272;-68
2021/01/14 11:44:25;;;;;;;10.20;5.20;;;;;;;0.93;71.79;96554.08;1717261;82;21578;-65
2021/01/14 11:46:54;;;;;;;10.40;5.00;;;;;;;1.03;72.15;96554.17;1715733;82;21543;-64
2021/01/14 11:49:22;;;;;;;5.50;3.85;;;;;;;0.97;71.58;96554.66;1714097;83;21176;-69
2021/01/14 11:51:51;;;;;;;6.62;3.80;;;;;;;0.87;72.48;96555.34;1714279;83;21164;-65
2021/01/14 11:54:21;;;;;;;12.18;8.15;;;;;;;0.81;72.58;96557.57;1708849;84;21163;-65
2021/01/14 11:56:54;;;;;;;7.83;5.17;;;;;;;0.74;73.12;96561.52;1709178;83;21326;-64
2021/01/14 11:59:22;;;;;;;8.55;4.90;;;;;;;0.82;72.27;96560.45;1709022;83;21350;-65
2021/01/14 12:01:51;;;;;;;6.70;4.17;;;;;;;0.69;73.44;96561.87;1711255;83;21148;-65
2021/01/14 12:04:19;;;;;;;8.45;4.87;;;;;;;0.81;73.20;96552.00;1715940;83;21149;-65
2021/01/14 12:06:52;;;;;;;9.65;4.37;;;;;;;0.88;72.89;96560.00;1716294;83;21147;-68
2021/01/14 12:09:21;;;;;;;7.78;4.62;;;;;;;0.79;73.26;96553.02;1711556;83;21549;-68
2021/01/14 12:11:54;;;;;;;7.17;4.80;;;;;;;0.73;73.68;96554.32;1704921;83;21203;-68
2021/01/14 12:14:23;;;;;;;6.80;4.37;;;;;;;0.59;73.68;96558.83;1704758;83;21171;-68